sensor_id;sensor_type;location;lat;lon;timestamp;temperature;humidity
50544;DHT22;41176;44.032;20.900;2022-08-19T00:00:07;23.70;88.70
50544;DHT22;41176;44.032;20.900;2022-08-19T00:02:34;23.70;88.40
50544;DHT22;41176;44.032;20.900;2022-08-19T00:05:01;23.80;86.80
50544;DHT22;41176;44.032;20.900;2022-08-19T00:07:27;23.90;86.10
50544;DHT22;41176;44.032;20.900;2022-08-19T00:09:53;24.00;85.90
50544;DHT22;41176;44.032;20.900;2022-08-19T00:12:19;24.00;85.50
50544;DHT22;41176;44.032;20.900;2022-08-19T00:14:45;24.10;85.10
50544;DHT22;41176;44.032;20.900;2022-08-19T00:17:11;24.10;84.90
50544;DHT22;41176;44.032;20.900;2022-08-19T00:19:38;24.20;84.80
50544;DHT22;41176;44.032;20.900;2022-08-19T00:22:04;24.10;85.60
50544;DHT22;41176;44.032;20.900;2022-08-19T00:24:31;24.10;85.00
50544;DHT22;41176;44.032;20.900;2022-08-19T00:26:58;24.00;86.60
50544;DHT22;41176;44.032;20.900;2022-08-19T00:29:24;24.00;86.50
50544;DHT22;41176;44.032;20.900;2022-08-19T00:31:51;24.00;87.40
50544;DHT22;41176;44.032;20.900;2022-08-19T00:34:22;24.00;87.00
50544;DHT22;41176;44.032;20.900;2022-08-19T00:36:48;23.90;87.40
50544;DHT22;41176;44.032;20.900;2022-08-19T00:39:16;23.70;88.30
50544;DHT22;41176;44.032;20.900;2022-08-19T00:41:43;23.50;89.30
50544;DHT22;41176;44.032;20.900;2022-08-19T00:44:13;23.40;90.00
50544;DHT22;41176;44.032;20.900;2022-08-19T00:46:42;23.40;90.10
50544;DHT22;41176;44.032;20.900;2022-08-19T00:49:15;23.30;90.30
50544;DHT22;41176;44.032;20.900;2022-08-19T00:51:45;23.30;90.60
50544;DHT22;41176;44.032;20.900;2022-08-19T00:54:12;23.10;91.00
50544;DHT22;41176;44.032;20.900;2022-08-19T00:56:38;23.10;91.10
50544;DHT22;41176;44.032;20.900;2022-08-19T00:59:05;23.10;91.00
50544;DHT22;41176;44.032;20.900;2022-08-19T01:01:36;23.10;91.00
50544;DHT22;41176;44.032;20.900;2022-08-19T01:04:02;23.10;90.90
50544;DHT22;41176;44.032;20.900;2022-08-19T01:06:28;23.20;90.90
50544;DHT22;41176;44.032;20.900;2022-08-19T01:08:56;23.30;90.80
50544;DHT22;41176;44.032;20.900;2022-08-19T01:11:22;23.30;90.80
50544;DHT22;41176;44.032;20.900;2022-08-19T01:13:48;23.40;90.70
50544;DHT22;41176;44.032;20.900;2022-08-19T01:16:17;23.40;90.80
50544;DHT22;41176;44.032;20.900;2022-08-19T01:18:43;23.40;90.70
50544;DHT22;41176;44.032;20.900;2022-08-19T01:21:34;23.40;90.50
50544;DHT22;41176;44.032;20.900;2022-08-19T01:24:02;23.40;90.50
50544;DHT22;41176;44.032;20.900;2022-08-19T01:26:28;23.50;90.30
50544;DHT22;41176;44.032;20.900;2022-08-19T01:28:57;23.40;90.30
50544;DHT22;41176;44.032;20.900;2022-08-19T01:31:26;23.40;90.40
50544;DHT22;41176;44.032;20.900;2022-08-19T01:33:53;23.40;90.30
50544;DHT22;41176;44.032;20.900;2022-08-19T01:36:41;23.40;90.20
50544;DHT22;41176;44.032;20.900;2022-08-19T01:39:11;23.40;90.10
50544;DHT22;41176;44.032;20.900;2022-08-19T01:41:37;23.40;90.10
50544;DHT22;41176;44.032;20.900;2022-08-19T01:44:03;23.40;90.20
50544;DHT22;41176;44.032;20.900;2022-08-19T01:46:30;23.40;90.00
50544;DHT22;41176;44.032;20.900;2022-08-19T01:48:56;23.40;89.90
50544;DHT22;41176;44.032;20.900;2022-08-19T01:51:22;23.50;89.40
50544;DHT22;41176;44.032;20.900;2022-08-19T01:53:50;23.50;90.00
50544;DHT22;41176;44.032;20.900;2022-08-19T01:56:19;23.50;90.10
50544;DHT22;41176;44.032;20.900;2022-08-19T01:58:51;23.40;90.90
50544;DHT22;41176;44.032;20.900;2022-08-19T02:01:19;23.40;90.70
50544;DHT22;41176;44.032;20.900;2022-08-19T02:03:45;23.30;91.10
50544;DHT22;41176;44.032;20.900;2022-08-19T02:06:11;23.30;91.40
50544;DHT22;41176;44.032;20.900;2022-08-19T02:08:39;23.20;91.70
50544;DHT22;41176;44.032;20.900;2022-08-19T02:11:06;23.00;91.80
50544;DHT22;41176;44.032;20.900;2022-08-19T02:13:32;22.90;91.80
50544;DHT22;41176;44.032;20.900;2022-08-19T02:15:59;22.90;91.80
50544;DHT22;41176;44.032;20.900;2022-08-19T02:18:24;22.90;91.80
50544;DHT22;41176;44.032;20.900;2022-08-19T02:20:52;22.80;91.90
50544;DHT22;41176;44.032;20.900;2022-08-19T02:23:17;22.90;91.80
50544;DHT22;41176;44.032;20.900;2022-08-19T02:25:45;22.90;91.70
50544;DHT22;41176;44.032;20.900;2022-08-19T02:28:13;22.90;91.60
50544;DHT22;41176;44.032;20.900;2022-08-19T02:30:41;22.90;91.40
50544;DHT22;41176;44.032;20.900;2022-08-19T02:33:07;23.00;91.30
50544;DHT22;41176;44.032;20.900;2022-08-19T02:35:32;22.90;91.30
50544;DHT22;41176;44.032;20.900;2022-08-19T02:37:58;23.00;91.00
50544;DHT22;41176;44.032;20.900;2022-08-19T02:40:49;23.00;90.90
50544;DHT22;41176;44.032;20.900;2022-08-19T02:43:17;23.00;90.60
50544;DHT22;41176;44.032;20.900;2022-08-19T02:45:43;23.00;90.00
50544;DHT22;41176;44.032;20.900;2022-08-19T02:48:08;23.10;89.40
50544;DHT22;41176;44.032;20.900;2022-08-19T02:50:38;23.20;88.90
50544;DHT22;41176;44.032;20.900;2022-08-19T02:53:04;23.30;88.50
50544;DHT22;41176;44.032;20.900;2022-08-19T02:55:30;23.30;88.20
50544;DHT22;41176;44.032;20.900;2022-08-19T02:57:55;23.30;87.90
50544;DHT22;41176;44.032;20.900;2022-08-19T03:00:22;23.30;87.80
50544;DHT22;41176;44.032;20.900;2022-08-19T03:02:49;23.30;88.00
50544;DHT22;41176;44.032;20.900;2022-08-19T03:05:15;23.30;87.80
50544;DHT22;41176;44.032;20.900;2022-08-19T03:07:41;23.30;87.70
50544;DHT22;41176;44.032;20.900;2022-08-19T03:10:07;23.40;87.30
50544;DHT22;41176;44.032;20.900;2022-08-19T03:12:36;23.40;87.20
50544;DHT22;41176;44.032;20.900;2022-08-19T03:15:04;23.40;87.30
50544;DHT22;41176;44.032;20.900;2022-08-19T03:17:31;23.40;86.80
50544;DHT22;41176;44.032;20.900;2022-08-19T03:19:56;23.40;86.60
50544;DHT22;41176;44.032;20.900;2022-08-19T03:22:22;23.40;86.90
50544;DHT22;41176;44.032;20.900;2022-08-19T03:24:48;23.40;87.60
50544;DHT22;41176;44.032;20.900;2022-08-19T03:27:13;23.30;87.90
50544;DHT22;41176;44.032;20.900;2022-08-19T03:29:39;23.20;89.00
50544;DHT22;41176;44.032;20.900;2022-08-19T03:32:06;23.10;89.20
50544;DHT22;41176;44.032;20.900;2022-08-19T03:34:33;23.10;89.60
50544;DHT22;41176;44.032;20.900;2022-08-19T03:37:05;23.10;90.00
50544;DHT22;41176;44.032;20.900;2022-08-19T03:39:31;23.10;90.10
50544;DHT22;41176;44.032;20.900;2022-08-19T03:41:57;23.00;90.40
50544;DHT22;41176;44.032;20.900;2022-08-19T03:44:25;22.90;90.60
50544;DHT22;41176;44.032;20.900;2022-08-19T03:46:57;22.80;90.70
50544;DHT22;41176;44.032;20.900;2022-08-19T03:49:26;22.80;90.90
50544;DHT22;41176;44.032;20.900;2022-08-19T03:51:54;22.70;91.10
50544;DHT22;41176;44.032;20.900;2022-08-19T03:54:22;22.70;91.30
50544;DHT22;41176;44.032;20.900;2022-08-19T03:56:50;22.70;91.70
50544;DHT22;41176;44.032;20.900;2022-08-19T03:59:22;22.60;91.70
50544;DHT22;41176;44.032;20.900;2022-08-19T04:01:51;22.60;91.50
50544;DHT22;41176;44.032;20.900;2022-08-19T04:04:16;22.60;91.30
50544;DHT22;41176;44.032;20.900;2022-08-19T04:06:43;22.60;91.40
50544;DHT22;41176;44.032;20.900;2022-08-19T04:09:11;22.60;91.50
50544;DHT22;41176;44.032;20.900;2022-08-19T04:11:39;22.60;91.30
50544;DHT22;41176;44.032;20.900;2022-08-19T04:14:09;22.60;91.50
50544;DHT22;41176;44.032;20.900;2022-08-19T04:16:36;22.60;91.30
50544;DHT22;41176;44.032;20.900;2022-08-19T04:19:04;22.60;91.40
50544;DHT22;41176;44.032;20.900;2022-08-19T04:21:29;22.60;91.70
50544;DHT22;41176;44.032;20.900;2022-08-19T04:23:56;22.60;91.70
50544;DHT22;41176;44.032;20.900;2022-08-19T04:26:28;22.50;91.60
50544;DHT22;41176;44.032;20.900;2022-08-19T04:28:58;22.50;91.70
50544;DHT22;41176;44.032;20.900;2022-08-19T04:31:29;22.50;92.00
50544;DHT22;41176;44.032;20.900;2022-08-19T04:33:59;22.50;92.00
50544;DHT22;41176;44.032;20.900;2022-08-19T04:36:30;22.50;92.00
50544;DHT22;41176;44.032;20.900;2022-08-19T04:38:58;22.50;92.00
50544;DHT22;41176;44.032;20.900;2022-08-19T04:41:25;22.50;91.80
50544;DHT22;41176;44.032;20.900;2022-08-19T04:44:10;22.60;91.60
50544;DHT22;41176;44.032;20.900;2022-08-19T04:46:36;22.70;91.40
50544;DHT22;41176;44.032;20.900;2022-08-19T04:49:03;22.80;91.30
50544;DHT22;41176;44.032;20.900;2022-08-19T04:51:33;22.80;91.00
50544;DHT22;41176;44.032;20.900;2022-08-19T04:54:00;22.80;91.20
50544;DHT22;41176;44.032;20.900;2022-08-19T04:56:27;22.90;91.20
50544;DHT22;41176;44.032;20.900;2022-08-19T04:58:54;22.90;90.90
50544;DHT22;41176;44.032;20.900;2022-08-19T05:01:23;23.00;90.70
50544;DHT22;41176;44.032;20.900;2022-08-19T05:03:49;23.10;90.70
50544;DHT22;41176;44.032;20.900;2022-08-19T05:06:17;23.20;90.40
50544;DHT22;41176;44.032;20.900;2022-08-19T05:08:44;23.30;89.90
50544;DHT22;41176;44.032;20.900;2022-08-19T05:11:28;23.40;90.10
50544;DHT22;41176;44.032;20.900;2022-08-19T05:13:55;23.40;89.80
50544;DHT22;41176;44.032;20.900;2022-08-19T05:16:23;23.50;90.20
50544;DHT22;41176;44.032;20.900;2022-08-19T05:18:49;23.60;89.90
50544;DHT22;41176;44.032;20.900;2022-08-19T05:21:34;23.70;90.60
50544;DHT22;41176;44.032;20.900;2022-08-19T05:24:20;23.70;90.00
50544;DHT22;41176;44.032;20.900;2022-08-19T05:26:48;23.70;90.60
50544;DHT22;41176;44.032;20.900;2022-08-19T05:29:16;23.50;90.40
50544;DHT22;41176;44.032;20.900;2022-08-19T05:31:43;23.50;90.70
50544;DHT22;41176;44.032;20.900;2022-08-19T05:34:09;23.50;91.10
50544;DHT22;41176;44.032;20.900;2022-08-19T05:36:40;23.60;90.90
50544;DHT22;41176;44.032;20.900;2022-08-19T05:39:07;23.70;91.20
50544;DHT22;41176;44.032;20.900;2022-08-19T05:41:35;23.70;91.00
50544;DHT22;41176;44.032;20.900;2022-08-19T05:44:02;23.70;91.50
50544;DHT22;41176;44.032;20.900;2022-08-19T05:46:31;23.90;91.50
50544;DHT22;41176;44.032;20.900;2022-08-19T05:48:57;23.90;91.20
50544;DHT22;41176;44.032;20.900;2022-08-19T05:51:24;24.00;91.00
50544;DHT22;41176;44.032;20.900;2022-08-19T05:53:50;24.20;90.70
50544;DHT22;41176;44.032;20.900;2022-08-19T05:56:17;24.30;90.10
50544;DHT22;41176;44.032;20.900;2022-08-19T05:58:44;24.40;90.20
50544;DHT22;41176;44.032;20.900;2022-08-19T06:01:16;24.50;90.20
50544;DHT22;41176;44.032;20.900;2022-08-19T06:03:42;24.70;89.00
50544;DHT22;41176;44.032;20.900;2022-08-19T06:06:12;24.80;86.90
50544;DHT22;41176;44.032;20.900;2022-08-19T06:08:42;24.90;87.30
50544;DHT22;41176;44.032;20.900;2022-08-19T06:11:34;25.00;87.80
50544;DHT22;41176;44.032;20.900;2022-08-19T06:14:02;25.10;86.80
50544;DHT22;41176;44.032;20.900;2022-08-19T06:16:28;25.10;86.30
50544;DHT22;41176;44.032;20.900;2022-08-19T06:18:59;25.30;86.50
50544;DHT22;41176;44.032;20.900;2022-08-19T06:21:27;25.40;85.70
50544;DHT22;41176;44.032;20.900;2022-08-19T06:23:55;25.60;84.70
50544;DHT22;41176;44.032;20.900;2022-08-19T06:26:21;25.80;84.90
50544;DHT22;41176;44.032;20.900;2022-08-19T06:28:48;25.90;83.20
50544;DHT22;41176;44.032;20.900;2022-08-19T06:31:19;26.00;83.70
50544;DHT22;41176;44.032;20.900;2022-08-19T06:33:46;26.10;84.70
50544;DHT22;41176;44.032;20.900;2022-08-19T06:36:34;26.20;84.20
50544;DHT22;41176;44.032;20.900;2022-08-19T06:39:10;26.40;81.80
50544;DHT22;41176;44.032;20.900;2022-08-19T06:41:39;26.50;82.50
50544;DHT22;41176;44.032;20.900;2022-08-19T06:44:06;26.70;80.90
50544;DHT22;41176;44.032;20.900;2022-08-19T06:46:32;26.90;78.30
50544;DHT22;41176;44.032;20.900;2022-08-19T06:48:59;27.20;77.70
50544;DHT22;41176;44.032;20.900;2022-08-19T06:51:26;27.60;75.80
50544;DHT22;41176;44.032;20.900;2022-08-19T06:53:53;27.90;73.40
50544;DHT22;41176;44.032;20.900;2022-08-19T06:56:22;28.00;75.80
50544;DHT22;41176;44.032;20.900;2022-08-19T06:58:50;28.30;72.60
50544;DHT22;41176;44.032;20.900;2022-08-19T07:01:19;28.60;72.80
50544;DHT22;41176;44.032;20.900;2022-08-19T07:03:45;28.90;73.80
50544;DHT22;41176;44.032;20.900;2022-08-19T07:06:14;29.10;72.50
50544;DHT22;41176;44.032;20.900;2022-08-19T07:08:43;29.40;71.60
50544;DHT22;41176;44.032;20.900;2022-08-19T07:11:13;29.70;69.40
50544;DHT22;41176;44.032;20.900;2022-08-19T07:13:43;29.80;70.80
50544;DHT22;41176;44.032;20.900;2022-08-19T07:16:13;29.80;70.20
50544;DHT22;41176;44.032;20.900;2022-08-19T07:18:40;30.20;68.30
50544;DHT22;41176;44.032;20.900;2022-08-19T07:21:08;30.20;68.60
50544;DHT22;41176;44.032;20.900;2022-08-19T07:23:35;30.30;68.50
50544;DHT22;41176;44.032;20.900;2022-08-19T07:26:15;30.20;68.60
50544;DHT22;41176;44.032;20.900;2022-08-19T07:28:42;30.30;68.80
50544;DHT22;41176;44.032;20.900;2022-08-19T07:31:15;30.40;68.40
50544;DHT22;41176;44.032;20.900;2022-08-19T07:33:43;30.50;67.60
50544;DHT22;41176;44.032;20.900;2022-08-19T07:36:11;30.80;67.40
50544;DHT22;41176;44.032;20.900;2022-08-19T07:38:43;31.20;67.50
50544;DHT22;41176;44.032;20.900;2022-08-19T07:41:11;31.50;64.70
50544;DHT22;41176;44.032;20.900;2022-08-19T07:43:38;31.70;64.60
50544;DHT22;41176;44.032;20.900;2022-08-19T07:46:04;31.60;66.50
50544;DHT22;41176;44.032;20.900;2022-08-19T07:48:30;31.40;64.00
50544;DHT22;41176;44.032;20.900;2022-08-19T07:50:59;31.60;64.90
50544;DHT22;41176;44.032;20.900;2022-08-19T07:53:30;31.90;64.60
50544;DHT22;41176;44.032;20.900;2022-08-19T07:55:59;32.10;63.30
50544;DHT22;41176;44.032;20.900;2022-08-19T07:58:31;31.70;63.00
50544;DHT22;41176;44.032;20.900;2022-08-19T08:01:15;31.60;64.80
50544;DHT22;41176;44.032;20.900;2022-08-19T08:03:42;32.20;63.90
50544;DHT22;41176;44.032;20.900;2022-08-19T08:06:26;32.70;61.40
50544;DHT22;41176;44.032;20.900;2022-08-19T08:09:11;33.20;60.80
50544;DHT22;41176;44.032;20.900;2022-08-19T08:11:39;33.30;60.40
50544;DHT22;41176;44.032;20.900;2022-08-19T08:14:06;33.20;61.60
50544;DHT22;41176;44.032;20.900;2022-08-19T08:16:37;33.60;62.50
50544;DHT22;41176;44.032;20.900;2022-08-19T08:19:06;33.90;58.00
50544;DHT22;41176;44.032;20.900;2022-08-19T08:21:33;34.00;60.80
50544;DHT22;41176;44.032;20.900;2022-08-19T08:23:59;34.10;59.10
50544;DHT22;41176;44.032;20.900;2022-08-19T08:26:25;34.00;58.30
50544;DHT22;41176;44.032;20.900;2022-08-19T08:28:52;33.70;60.00
50544;DHT22;41176;44.032;20.900;2022-08-19T08:31:19;33.80;60.00
50544;DHT22;41176;44.032;20.900;2022-08-19T08:33:45;34.10;60.00
50544;DHT22;41176;44.032;20.900;2022-08-19T08:36:13;34.20;59.40
50544;DHT22;41176;44.032;20.900;2022-08-19T08:38:40;34.30;59.20
50544;DHT22;41176;44.032;20.900;2022-08-19T08:41:30;34.60;58.70
50544;DHT22;41176;44.032;20.900;2022-08-19T08:43:57;34.60;59.90
50544;DHT22;41176;44.032;20.900;2022-08-19T08:46:43;34.70;57.20
50544;DHT22;41176;44.032;20.900;2022-08-19T08:49:45;34.60;58.00
50544;DHT22;41176;44.032;20.900;2022-08-19T08:52:45;34.70;58.90
50544;DHT22;41176;44.032;20.900;2022-08-19T08:55:18;34.80;58.80
50544;DHT22;41176;44.032;20.900;2022-08-19T09:00:19;34.90;58.10
50544;DHT22;41176;44.032;20.900;2022-08-19T09:02:45;35.20;59.10
50544;DHT22;41176;44.032;20.900;2022-08-19T09:05:11;35.20;58.90
50544;DHT22;41176;44.032;20.900;2022-08-19T09:07:56;35.40;58.50
50544;DHT22;41176;44.032;20.900;2022-08-19T09:15:44;35.90;55.50
50544;DHT22;41176;44.032;20.900;2022-08-19T09:18:11;36.00;55.30
50544;DHT22;41176;44.032;20.900;2022-08-19T09:20:37;36.20;55.40
50544;DHT22;41176;44.032;20.900;2022-08-19T09:23:03;36.60;57.10
50544;DHT22;41176;44.032;20.900;2022-08-19T09:25:30;36.80;55.50
50544;DHT22;41176;44.032;20.900;2022-08-19T09:27:58;37.20;56.90
50544;DHT22;41176;44.032;20.900;2022-08-19T09:30:32;37.40;56.50
50544;DHT22;41176;44.032;20.900;2022-08-19T09:32:59;37.50;55.30
50544;DHT22;41176;44.032;20.900;2022-08-19T09:35:27;37.50;54.50
50544;DHT22;41176;44.032;20.900;2022-08-19T09:37:55;37.70;52.90
50544;DHT22;41176;44.032;20.900;2022-08-19T09:40:22;37.70;50.90
50544;DHT22;41176;44.032;20.900;2022-08-19T09:42:48;37.80;52.60
50544;DHT22;41176;44.032;20.900;2022-08-19T09:45:16;37.80;53.20
50544;DHT22;41176;44.032;20.900;2022-08-19T09:47:43;37.40;50.30
50544;DHT22;41176;44.032;20.900;2022-08-19T09:50:11;37.40;51.90
50544;DHT22;41176;44.032;20.900;2022-08-19T09:52:37;37.30;49.30
50544;DHT22;41176;44.032;20.900;2022-08-19T09:55:05;37.30;49.60
50544;DHT22;41176;44.032;20.900;2022-08-19T09:57:31;37.30;48.50
50544;DHT22;41176;44.032;20.900;2022-08-19T09:59:57;37.40;48.50
50544;DHT22;41176;44.032;20.900;2022-08-19T10:02:23;36.90;48.40
50544;DHT22;41176;44.032;20.900;2022-08-19T10:04:50;36.60;49.10
50544;DHT22;41176;44.032;20.900;2022-08-19T10:07:35;36.70;49.90
50544;DHT22;41176;44.032;20.900;2022-08-19T10:10:04;36.80;49.50
50544;DHT22;41176;44.032;20.900;2022-08-19T10:12:30;36.80;47.80
50544;DHT22;41176;44.032;20.900;2022-08-19T10:14:56;36.80;49.80
50544;DHT22;41176;44.032;20.900;2022-08-19T10:17:22;37.10;52.40
50544;DHT22;41176;44.032;20.900;2022-08-19T10:19:48;36.90;49.50
50544;DHT22;41176;44.032;20.900;2022-08-19T10:22:13;36.70;47.80
50544;DHT22;41176;44.032;20.900;2022-08-19T10:24:40;37.00;50.20
50544;DHT22;41176;44.032;20.900;2022-08-19T10:27:06;37.00;50.80
50544;DHT22;41176;44.032;20.900;2022-08-19T10:29:32;37.20;49.70
50544;DHT22;41176;44.032;20.900;2022-08-19T10:32:04;37.30;48.80
50544;DHT22;41176;44.032;20.900;2022-08-19T10:34:35;37.10;48.70
50544;DHT22;41176;44.032;20.900;2022-08-19T10:37:02;36.70;49.20
50544;DHT22;41176;44.032;20.900;2022-08-19T10:39:32;36.70;49.90
50544;DHT22;41176;44.032;20.900;2022-08-19T10:41:58;36.60;50.50
50544;DHT22;41176;44.032;20.900;2022-08-19T10:44:25;36.50;49.70
50544;DHT22;41176;44.032;20.900;2022-08-19T10:46:50;36.90;52.90
50544;DHT22;41176;44.032;20.900;2022-08-19T10:49:17;36.90;51.70
50544;DHT22;41176;44.032;20.900;2022-08-19T10:51:44;37.00;50.80
50544;DHT22;41176;44.032;20.900;2022-08-19T10:54:28;36.90;49.90
50544;DHT22;41176;44.032;20.900;2022-08-19T10:57:15;36.90;51.30
50544;DHT22;41176;44.032;20.900;2022-08-19T10:59:41;37.00;50.50
50544;DHT22;41176;44.032;20.900;2022-08-19T11:02:09;36.70;49.60
50544;DHT22;41176;44.032;20.900;2022-08-19T11:04:37;36.70;50.30
50544;DHT22;41176;44.032;20.900;2022-08-19T11:07:04;36.90;49.80
50544;DHT22;41176;44.032;20.900;2022-08-19T11:09:30;36.80;51.20
50544;DHT22;41176;44.032;20.900;2022-08-19T11:11:56;37.00;50.60
50544;DHT22;41176;44.032;20.900;2022-08-19T11:14:23;36.60;50.10
50544;DHT22;41176;44.032;20.900;2022-08-19T11:16:51;36.60;51.80
50544;DHT22;41176;44.032;20.900;2022-08-19T11:19:21;36.30;50.30
50544;DHT22;41176;44.032;20.900;2022-08-19T11:21:49;36.60;50.50
50544;DHT22;41176;44.032;20.900;2022-08-19T11:24:17;36.90;50.80
50544;DHT22;41176;44.032;20.900;2022-08-19T11:26:45;37.10;51.20
50544;DHT22;41176;44.032;20.900;2022-08-19T11:29:12;36.40;49.80
50544;DHT22;41176;44.032;20.900;2022-08-19T11:31:41;36.00;50.00
50544;DHT22;41176;44.032;20.900;2022-08-19T11:34:09;35.80;50.70
50544;DHT22;41176;44.032;20.900;2022-08-19T11:36:38;36.10;50.00
50544;DHT22;41176;44.032;20.900;2022-08-19T11:39:08;36.40;50.40
50544;DHT22;41176;44.032;20.900;2022-08-19T11:41:34;36.40;49.00
50544;DHT22;41176;44.032;20.900;2022-08-19T11:44:00;36.50;50.50
50544;DHT22;41176;44.032;20.900;2022-08-19T11:46:28;36.60;50.40
50544;DHT22;41176;44.032;20.900;2022-08-19T11:48:58;36.70;49.20
50544;DHT22;41176;44.032;20.900;2022-08-19T11:51:25;36.60;48.00
50544;DHT22;41176;44.032;20.900;2022-08-19T11:53:54;36.50;48.10
50544;DHT22;41176;44.032;20.900;2022-08-19T11:56:21;36.50;50.60
50544;DHT22;41176;44.032;20.900;2022-08-19T11:58:47;36.50;47.00
50544;DHT22;41176;44.032;20.900;2022-08-19T12:01:15;36.40;48.30
50544;DHT22;41176;44.032;20.900;2022-08-19T12:03:42;36.60;50.20
50544;DHT22;41176;44.032;20.900;2022-08-19T12:06:11;36.50;46.80
50544;DHT22;41176;44.032;20.900;2022-08-19T12:08:42;36.20;47.60
50544;DHT22;41176;44.032;20.900;2022-08-19T12:11:11;36.30;49.20
50544;DHT22;41176;44.032;20.900;2022-08-19T12:13:38;36.30;47.80
50544;DHT22;41176;44.032;20.900;2022-08-19T12:16:12;36.40;48.20
50544;DHT22;41176;44.032;20.900;2022-08-19T12:18:39;36.70;52.10
50544;DHT22;41176;44.032;20.900;2022-08-19T12:21:07;36.70;49.30
50544;DHT22;41176;44.032;20.900;2022-08-19T12:23:35;36.70;50.80
50544;DHT22;41176;44.032;20.900;2022-08-19T12:26:02;36.80;51.90
50544;DHT22;41176;44.032;20.900;2022-08-19T12:28:28;36.70;48.40
50544;DHT22;41176;44.032;20.900;2022-08-19T12:30:56;36.70;48.00
50544;DHT22;41176;44.032;20.900;2022-08-19T12:33:22;36.70;50.30
50544;DHT22;41176;44.032;20.900;2022-08-19T12:35:51;36.90;51.50
50544;DHT22;41176;44.032;20.900;2022-08-19T12:38:17;36.90;48.30
50544;DHT22;41176;44.032;20.900;2022-08-19T12:40:47;36.70;49.10
50544;DHT22;41176;44.032;20.900;2022-08-19T12:43:13;36.60;49.00
50544;DHT22;41176;44.032;20.900;2022-08-19T12:45:41;36.70;48.70
50544;DHT22;41176;44.032;20.900;2022-08-19T12:48:08;36.70;48.70
50544;DHT22;41176;44.032;20.900;2022-08-19T12:50:34;36.70;49.20
50544;DHT22;41176;44.032;20.900;2022-08-19T12:53:00;36.70;48.00
50544;DHT22;41176;44.032;20.900;2022-08-19T12:55:27;36.70;50.60
50544;DHT22;41176;44.032;20.900;2022-08-19T12:57:54;36.90;50.30
50544;DHT22;41176;44.032;20.900;2022-08-19T13:00:21;36.60;46.70
50544;DHT22;41176;44.032;20.900;2022-08-19T13:02:50;36.70;49.20
50544;DHT22;41176;44.032;20.900;2022-08-19T13:05:25;36.60;47.80
50544;DHT22;41176;44.032;20.900;2022-08-19T13:07:52;36.60;48.30
50544;DHT22;41176;44.032;20.900;2022-08-19T13:10:27;36.40;47.20
50544;DHT22;41176;44.032;20.900;2022-08-19T13:12:54;36.40;47.10
50544;DHT22;41176;44.032;20.900;2022-08-19T13:15:22;36.50;48.30
50544;DHT22;41176;44.032;20.900;2022-08-19T13:17:50;36.60;48.20
50544;DHT22;41176;44.032;20.900;2022-08-19T13:20:19;36.70;47.90
50544;DHT22;41176;44.032;20.900;2022-08-19T13:22:46;36.60;46.50
50544;DHT22;41176;44.032;20.900;2022-08-19T13:25:15;36.60;50.20
50544;DHT22;41176;44.032;20.900;2022-08-19T13:27:43;36.70;49.60
50544;DHT22;41176;44.032;20.900;2022-08-19T13:30:11;36.70;45.40
50544;DHT22;41176;44.032;20.900;2022-08-19T13:32:55;36.60;47.40
50544;DHT22;41176;44.032;20.900;2022-08-19T13:38:09;36.20;46.80
50544;DHT22;41176;44.032;20.900;2022-08-19T13:40:36;36.20;47.80
50544;DHT22;41176;44.032;20.900;2022-08-19T13:43:04;36.20;48.10
50544;DHT22;41176;44.032;20.900;2022-08-19T13:45:31;36.30;50.10
50544;DHT22;41176;44.032;20.900;2022-08-19T13:48:03;36.30;47.50
50544;DHT22;41176;44.032;20.900;2022-08-19T13:50:33;36.30;47.60
50544;DHT22;41176;44.032;20.900;2022-08-19T13:53:00;36.20;46.00
50544;DHT22;41176;44.032;20.900;2022-08-19T13:55:26;36.20;45.60
50544;DHT22;41176;44.032;20.900;2022-08-19T13:57:54;36.20;45.50
50544;DHT22;41176;44.032;20.900;2022-08-19T14:00:21;36.10;44.90
50544;DHT22;41176;44.032;20.900;2022-08-19T14:02:49;36.20;46.10
50544;DHT22;41176;44.032;20.900;2022-08-19T14:05:17;36.40;48.30
50544;DHT22;41176;44.032;20.900;2022-08-19T14:07:43;36.50;46.60
50544;DHT22;41176;44.032;20.900;2022-08-19T14:10:10;36.50;47.70
50544;DHT22;41176;44.032;20.900;2022-08-19T14:12:36;36.50;46.80
50544;DHT22;41176;44.032;20.900;2022-08-19T14:15:04;36.40;46.70
50544;DHT22;41176;44.032;20.900;2022-08-19T14:17:30;36.40;46.40
50544;DHT22;41176;44.032;20.900;2022-08-19T14:19:57;36.30;46.00
50544;DHT22;41176;44.032;20.900;2022-08-19T14:22:24;36.20;47.30
50544;DHT22;41176;44.032;20.900;2022-08-19T14:24:50;36.10;45.30
50544;DHT22;41176;44.032;20.900;2022-08-19T14:27:16;36.10;45.90
50544;DHT22;41176;44.032;20.900;2022-08-19T14:29:42;36.10;46.10
50544;DHT22;41176;44.032;20.900;2022-08-19T14:32:07;36.10;46.80
50544;DHT22;41176;44.032;20.900;2022-08-19T14:34:34;36.00;48.50
50544;DHT22;41176;44.032;20.900;2022-08-19T14:37:02;36.00;48.50
50544;DHT22;41176;44.032;20.900;2022-08-19T14:39:29;35.80;47.60
50544;DHT22;41176;44.032;20.900;2022-08-19T14:41:55;35.70;46.00
50544;DHT22;41176;44.032;20.900;2022-08-19T14:44:21;35.70;49.20
50544;DHT22;41176;44.032;20.900;2022-08-19T14:46:48;35.60;48.60
50544;DHT22;41176;44.032;20.900;2022-08-19T14:49:15;35.40;46.50
50544;DHT22;41176;44.032;20.900;2022-08-19T14:51:41;35.40;46.80
50544;DHT22;41176;44.032;20.900;2022-08-19T14:54:06;35.30;49.10
50544;DHT22;41176;44.032;20.900;2022-08-19T14:56:33;35.30;46.80
50544;DHT22;41176;44.032;20.900;2022-08-19T14:59:00;35.30;47.70
50544;DHT22;41176;44.032;20.900;2022-08-19T15:01:27;35.20;48.70
50544;DHT22;41176;44.032;20.900;2022-08-19T15:03:53;35.10;47.40
50544;DHT22;41176;44.032;20.900;2022-08-19T15:06:21;35.10;48.30
50544;DHT22;41176;44.032;20.900;2022-08-19T15:08:48;35.00;49.30
50544;DHT22;41176;44.032;20.900;2022-08-19T15:11:16;34.90;50.70
50544;DHT22;41176;44.032;20.900;2022-08-19T15:13:43;34.70;53.20
50544;DHT22;41176;44.032;20.900;2022-08-19T15:16:11;34.60;53.50
50544;DHT22;41176;44.032;20.900;2022-08-19T15:18:40;34.40;54.80
50544;DHT22;41176;44.032;20.900;2022-08-19T15:21:10;34.20;56.20
50544;DHT22;41176;44.032;20.900;2022-08-19T15:23:39;34.10;57.20
50544;DHT22;41176;44.032;20.900;2022-08-19T15:26:05;34.00;57.50
50544;DHT22;41176;44.032;20.900;2022-08-19T15:28:34;33.90;58.40
50544;DHT22;41176;44.032;20.900;2022-08-19T15:30:59;33.80;58.80
50544;DHT22;41176;44.032;20.900;2022-08-19T15:33:26;33.70;59.50